CheckWX is a tool to help pilots better visualize weather data.  It is not intended as a substitute for an official pre-flight weather briefing.

10:45:58 UTC

LHBP TAF
Budapest Ferenc Liszt International Airport
Budapest, Hungary
TAF LHBP 180515Z 1806/1906 01005KT CAVOK BECMG 1806/1808 07008KT BECMG 1816/1818 03005KT TEMPO 1818/1906 VRB03KT

Apr-18@
06:00 UTC

Apr-18 @ 06:00 UTC

Apr-19@
06:00 UTC

Apr-19 @ 06:00 UTC

TAF LHBP 180515Z 1806/1906 01005KT CAVOK
Wind
  • 010° at 5 KTS
Conditions
No significant weather
Cloud Levels
  • No significant clouds

Apr-18@
06:00 UTC

Apr-18 @ 06:00 UTC

Apr-18@
16:00 UTC

Apr-18 @ 16:00 UTC

BECMG 1806/1808 07008KT

Becoming

Becoming Conditions expected by Thu, Apr 18, 2019 @ 08:00 UTC

Wind
  • 070° at 8 KTS
Conditions
No significant weather
Cloud Levels
  • No significant clouds

Apr-18@
16:00 UTC

Apr-18 @ 16:00 UTC

Apr-19@
06:00 UTC

Apr-19 @ 06:00 UTC

BECMG 1816/1818 03005KT

Becoming

Becoming Conditions expected by Thu, Apr 18, 2019 @ 18:00 UTC

Wind
  • 030° at 5 KTS
Conditions
No significant weather
Cloud Levels
  • No significant clouds

Apr-18@
18:00 UTC

Apr-18 @ 18:00 UTC

Apr-19@
06:00 UTC

Apr-19 @ 06:00 UTC

TEMPO 1818/1906 VRB03KT

Temporary

Temporary Changes expected for less than half the time period

Wind
  • Variable at 3 KTS